createdAt,value
2019-05-30T00:00:16.549Z,0
2019-05-30T00:01:07.313Z,0
2019-05-30T00:02:08.009Z,0
2019-05-30T00:03:08.737Z,0
2019-05-30T00:04:09.456Z,0
2019-05-30T00:05:10.124Z,0
2019-05-30T00:06:10.822Z,0
2019-05-30T00:07:11.505Z,0
2019-05-30T00:08:12.215Z,0
2019-05-30T00:09:12.885Z,0
2019-05-30T00:10:13.572Z,0
2019-05-30T00:11:14.261Z,0
2019-05-30T00:12:14.947Z,0
2019-05-30T00:13:15.639Z,0
2019-05-30T00:14:16.344Z,0
2019-05-30T00:15:17.019Z,0
2019-05-30T00:16:17.707Z,0
2019-05-30T00:17:18.366Z,0
2019-05-30T00:18:19.066Z,0
2019-05-30T00:19:19.760Z,0
2019-05-30T00:20:20.437Z,0
2019-05-30T00:21:21.128Z,0
2019-05-30T00:22:21.814Z,0
2019-05-30T00:23:22.499Z,0
2019-05-30T00:24:23.197Z,0
2019-05-30T00:25:23.902Z,0
2019-05-30T00:26:24.578Z,0
2019-05-30T00:27:25.265Z,0
2019-05-30T00:28:25.958Z,0
2019-05-30T00:29:26.651Z,0
2019-05-30T00:30:27.334Z,0
2019-05-30T00:31:28.026Z,0
2019-05-30T00:32:28.716Z,0
2019-05-30T00:33:29.408Z,0
2019-05-30T00:34:30.089Z,0
2019-05-30T00:35:30.772Z,0
2019-05-30T00:36:31.474Z,0
2019-05-30T00:37:32.148Z,0
2019-05-30T00:38:32.841Z,0
2019-05-30T00:39:33.536Z,0
2019-05-30T00:40:34.258Z,0
2019-05-30T00:41:34.891Z,0
2019-05-30T00:42:35.580Z,0
2019-05-30T00:43:36.268Z,0
2019-05-30T00:44:36.957Z,0
2019-05-30T00:45:37.651Z,0
2019-05-30T00:46:38.337Z,0
2019-05-30T00:47:39.022Z,0
2019-05-30T00:48:39.723Z,0
2019-05-30T00:49:40.408Z,0
2019-05-30T00:50:41.104Z,0
2019-05-30T00:51:41.785Z,0
2019-05-30T00:52:42.566Z,0
2019-05-30T00:53:43.154Z,0
2019-05-30T00:54:43.850Z,0
2019-05-30T00:55:44.536Z,0
2019-05-30T00:56:45.220Z,0
2019-05-30T00:57:45.903Z,0
2019-05-30T00:58:46.595Z,0
2019-05-30T00:59:47.289Z,0
2019-05-30T01:00:47.968Z,0
2019-05-30T01:01:48.653Z,0
2019-05-30T01:02:49.371Z,0
2019-05-30T01:03:50.039Z,0
2019-05-30T01:04:50.728Z,0
2019-05-30T01:05:51.414Z,0
2019-05-30T01:06:52.150Z,0
2019-05-30T01:07:52.791Z,0
2019-05-30T01:08:53.486Z,0
2019-05-30T01:09:54.168Z,0
2019-05-30T01:10:54.885Z,0
2019-05-30T01:11:56.918Z,0
2019-05-30T01:12:56.867Z,0
2019-05-30T01:13:57.041Z,0
2019-05-30T01:14:58.882Z,0
2019-05-30T01:15:58.962Z,0
2019-05-30T01:16:59.077Z,0
2019-05-30T01:17:59.654Z,0
2019-05-30T01:19:01.091Z,0
2019-05-30T01:20:01.305Z,0
2019-05-30T01:21:01.741Z,0
2019-05-30T01:22:03.382Z,0
2019-05-30T01:23:03.309Z,0
2019-05-30T01:24:03.781Z,0
2019-05-30T01:25:05.887Z,0
2019-05-30T01:26:05.497Z,0
2019-05-30T01:27:05.837Z,0
2019-05-30T01:28:07.739Z,0
2019-05-30T01:29:07.755Z,0
2019-05-30T01:30:08.495Z,0
2019-05-30T01:31:11.380Z,0
2019-05-30T01:32:09.857Z,0
2019-05-30T01:33:10.541Z,0
2019-05-30T01:34:11.238Z,0
2019-05-30T01:35:11.919Z,0
2019-05-30T01:36:12.607Z,0
2019-05-30T01:37:13.310Z,0
2019-05-30T01:38:14.052Z,0
2019-05-30T01:39:14.704Z,0
2019-05-30T01:40:15.392Z,0
2019-05-30T01:41:17.666Z,0
2019-05-30T01:42:16.761Z,0
2019-05-30T01:43:17.447Z,0
2019-05-30T01:44:18.161Z,0
2019-05-30T01:45:18.832Z,0
2019-05-30T01:46:19.543Z,0
2019-05-30T01:47:20.209Z,0
2019-05-30T01:48:20.899Z,0
2019-05-30T01:49:21.596Z,0
2019-05-30T01:50:22.287Z,0
2019-05-30T01:51:22.976Z,0
2019-05-30T01:52:23.663Z,0
2019-05-30T01:53:24.350Z,0
2019-05-30T01:54:25.040Z,0
2019-05-30T01:55:25.736Z,0
2019-05-30T01:56:26.421Z,0
2019-05-30T01:57:27.114Z,0
2019-05-30T01:58:27.808Z,0
2019-05-30T01:59:28.509Z,0
2019-05-30T02:00:29.200Z,0
2019-05-30T02:01:29.884Z,0
2019-05-30T02:02:30.578Z,0
2019-05-30T02:03:31.261Z,0
2019-05-30T02:04:31.948Z,0
2019-05-30T02:05:32.639Z,0
2019-05-30T02:06:33.334Z,0
2019-05-30T02:07:34.047Z,0
2019-05-30T02:08:35.134Z,0
2019-05-30T02:09:35.709Z,0
2019-05-30T02:10:36.373Z,0
2019-05-30T02:11:37.061Z,0
2019-05-30T02:12:37.750Z,0
2019-05-30T02:13:38.496Z,0
2019-05-30T02:14:39.166Z,0
2019-05-30T02:15:39.862Z,0
2019-05-30T02:16:40.548Z,0
2019-05-30T02:17:41.238Z,0
2019-05-30T02:18:41.929Z,0
2019-05-30T02:19:42.620Z,0
2019-05-30T02:20:43.310Z,0
2019-05-30T02:21:43.996Z,0
2019-05-30T02:22:44.696Z,0
2019-05-30T02:23:45.375Z,0
2019-05-30T02:24:46.079Z,0
2019-05-30T02:25:46.765Z,0
2019-05-30T02:26:47.439Z,0
2019-05-30T02:27:48.127Z,4
2019-05-30T02:28:48.812Z,4
2019-05-30T02:29:49.516Z,4
2019-05-30T02:30:50.193Z,4
2019-05-30T02:31:50.889Z,0
2019-05-30T02:32:51.582Z,4
2019-05-30T02:33:52.271Z,4
2019-05-30T02:34:52.958Z,4
2019-05-30T02:35:53.653Z,8
2019-05-30T02:36:54.336Z,4
2019-05-30T02:37:55.053Z,8
2019-05-30T02:38:55.726Z,8
2019-05-30T02:40:00.200Z,8
2019-05-30T02:40:57.105Z,12
2019-05-30T02:41:57.808Z,12
2019-05-30T02:42:58.499Z,12
2019-05-30T02:44:01.044Z,12
2019-05-30T02:45:01.434Z,16
2019-05-30T02:46:00.971Z,20
2019-05-30T02:47:01.588Z,20
2019-05-30T02:48:03.153Z,24
2019-05-30T02:49:04.430Z,24
2019-05-30T02:50:04.397Z,32
2019-05-30T02:51:05.544Z,36
2019-05-30T02:52:06.344Z,36
2019-05-30T02:53:05.983Z,44
2019-05-30T02:54:07.108Z,48
2019-05-30T02:55:08.608Z,56
2019-05-30T02:56:07.954Z,60
2019-05-30T02:57:10.123Z,68
2019-05-30T02:58:10.561Z,76
2019-05-30T02:59:11.542Z,84
2019-05-30T03:00:16.130Z,92
2019-05-30T03:01:11.931Z,100
2019-05-30T03:02:15.209Z,112
2019-05-30T03:03:14.236Z,120
2019-05-30T03:04:13.050Z,132
2019-05-30T03:05:15.089Z,144
2019-05-30T03:06:14.393Z,152
2019-05-30T03:07:15.002Z,168
2019-05-30T03:08:15.693Z,184
2019-05-30T03:09:16.380Z,200
2019-05-30T03:10:17.077Z,216
2019-05-30T03:11:17.771Z,236
2019-05-30T03:12:18.495Z,260
2019-05-30T03:13:19.168Z,280
2019-05-30T03:14:20.218Z,304
2019-05-30T03:15:20.545Z,328
2019-05-30T03:16:21.236Z,356
2019-05-30T03:17:21.933Z,388
2019-05-30T03:18:22.635Z,416
2019-05-30T03:19:23.317Z,452
2019-05-30T03:20:24.029Z,488
2019-05-30T03:21:24.700Z,536
2019-05-30T03:22:25.391Z,580
2019-05-30T03:23:26.088Z,636
2019-05-30T03:24:26.778Z,684
2019-05-30T03:25:27.477Z,728
2019-05-30T03:26:28.230Z,760
2019-05-30T03:27:28.844Z,788
2019-05-30T03:28:29.544Z,808
2019-05-30T03:29:30.235Z,820
2019-05-30T03:30:30.965Z,836
2019-05-30T03:31:31.622Z,856
2019-05-30T03:33:03.467Z,900
2019-05-30T03:33:40.412Z,964
2019-05-30T03:34:34.661Z,1032
2019-05-30T03:35:41.613Z,1108
2019-05-30T03:36:36.051Z,1168
2019-05-30T03:37:36.750Z,1216
2019-05-30T03:38:37.444Z,1252
2019-05-30T03:39:38.132Z,1276
2019-05-30T03:40:38.840Z,1296
2019-05-30T03:41:39.524Z,1312
2019-05-30T03:42:40.236Z,1320
2019-05-30T03:43:40.918Z,1328
2019-05-30T03:44:41.606Z,1340
2019-05-30T03:45:42.300Z,1356
2019-05-30T03:46:42.999Z,1372
2019-05-30T03:47:43.687Z,1400
2019-05-30T03:48:44.380Z,1436
2019-05-30T03:49:45.080Z,1480
2019-05-30T03:50:45.765Z,1512
2019-05-30T03:51:46.513Z,1540
2019-05-30T03:52:47.158Z,1564
2019-05-30T03:53:47.846Z,1592
2019-05-30T03:54:48.527Z,1636
2019-05-30T03:55:49.226Z,1688
2019-05-30T03:56:49.915Z,1772
2019-05-30T03:57:50.957Z,1852
2019-05-30T03:58:51.587Z,1920
2019-05-30T03:59:52.259Z,1960
2019-05-30T04:00:52.949Z,2004
2019-05-30T04:01:53.641Z,2044
2019-05-30T04:02:58.036Z,2120
2019-05-30T04:03:55.027Z,2224
2019-05-30T04:04:55.687Z,2356
2019-05-30T04:05:56.426Z,2500
2019-05-30T04:06:57.116Z,2640
2019-05-30T04:07:57.823Z,2752
2019-05-30T04:08:58.508Z,2848
2019-05-30T04:09:59.200Z,2944
2019-05-30T04:10:59.925Z,3036
2019-05-30T04:12:00.614Z,3124
2019-05-30T04:13:01.310Z,3216
2019-05-30T04:14:02.022Z,3308
2019-05-30T04:15:02.715Z,3404
2019-05-30T04:16:03.371Z,3484
2019-05-30T04:17:04.033Z,3564
2019-05-30T04:18:04.731Z,3632
2019-05-30T04:19:05.462Z,3700
2019-05-30T04:20:07.100Z,3780
2019-05-30T04:21:08.531Z,3880
2019-05-30T04:22:09.176Z,3988
2019-05-30T04:23:08.668Z,4068
2019-05-30T04:24:09.650Z,4156
2019-05-30T04:25:10.133Z,4228
2019-05-30T04:26:11.520Z,4308
2019-05-30T04:27:12.001Z,4388
2019-05-30T04:28:12.066Z,4464
2019-05-30T04:29:14.069Z,4536
2019-05-30T04:30:14.369Z,4620
2019-05-30T04:31:14.500Z,4696
2019-05-30T04:32:14.509Z,4756
2019-05-30T04:33:26.968Z,4824
2019-05-30T04:34:17.222Z,4896
2019-05-30T04:35:16.935Z,4956
2019-05-30T04:36:18.904Z,5028
2019-05-30T04:37:19.045Z,5080
2019-05-30T04:38:19.521Z,5136
2019-05-30T04:39:19.311Z,5168
2019-05-30T04:40:19.959Z,5172
2019-05-30T04:41:21.051Z,5168
2019-05-30T04:42:21.338Z,5192
2019-05-30T04:43:22.032Z,5228
2019-05-30T04:44:22.750Z,5268
2019-05-30T04:45:27.589Z,5312
2019-05-30T04:46:24.117Z,5344
2019-05-30T04:47:24.810Z,5356
2019-05-30T04:48:25.510Z,5376
2019-05-30T04:49:26.200Z,5360
2019-05-30T04:50:26.891Z,5336
2019-05-30T04:51:27.590Z,5340
2019-05-30T04:52:28.293Z,5376
2019-05-30T04:53:28.976Z,5456
2019-05-30T04:54:29.684Z,5584
2019-05-30T04:55:30.365Z,5724
2019-05-30T04:56:31.067Z,5832
2019-05-30T04:57:31.760Z,5916
2019-05-30T04:58:32.455Z,6000
2019-05-30T04:59:33.144Z,6124
2019-05-30T05:00:33.839Z,6292
2019-05-30T05:01:34.548Z,6500
2019-05-30T05:02:35.246Z,6724
2019-05-30T05:03:45.709Z,6944
2019-05-30T05:04:37.648Z,7108
2019-05-30T05:05:38.344Z,7192
2019-05-30T05:06:39.037Z,7208
2019-05-30T05:07:39.737Z,7216
2019-05-30T05:08:40.429Z,7248
2019-05-30T05:09:41.131Z,7348
2019-05-30T05:10:41.824Z,7484
2019-05-30T05:11:42.536Z,7648
2019-05-30T05:12:43.215Z,7848
2019-05-30T05:13:43.910Z,8108
2019-05-30T05:14:44.612Z,8416
2019-05-30T05:15:45.307Z,8712
2019-05-30T05:16:46.017Z,8980
2019-05-30T05:17:46.711Z,9208
2019-05-30T05:18:47.408Z,9468
2019-05-30T05:19:48.104Z,9708
2019-05-30T05:20:48.802Z,9820
2019-05-30T05:21:49.491Z,9880
2019-05-30T05:22:50.184Z,9920
2019-05-30T05:23:50.893Z,10028
2019-05-30T05:24:51.625Z,10260
2019-05-30T05:26:00.891Z,10620
2019-05-30T05:26:52.986Z,11228
2019-05-30T05:27:53.689Z,12128
2019-05-30T05:28:54.391Z,12504
2019-05-30T05:29:55.086Z,11776
2019-05-30T05:30:55.785Z,11724
2019-05-30T05:31:56.514Z,11872
2019-05-30T05:32:57.180Z,11984
2019-05-30T05:33:57.880Z,12108
2019-05-30T05:34:58.571Z,12268
2019-05-30T05:35:59.294Z,12400
2019-05-30T05:36:59.999Z,12524
2019-05-30T05:38:00.689Z,12588
2019-05-30T05:39:01.391Z,12604
2019-05-30T05:40:02.083Z,12580
2019-05-30T05:41:02.773Z,12452
2019-05-30T05:42:03.466Z,12160
2019-05-30T05:43:04.169Z,11752
2019-05-30T05:44:04.921Z,11220
2019-05-30T05:45:05.619Z,10772
2019-05-30T05:46:06.317Z,10464
2019-05-30T05:47:07.027Z,10320
2019-05-30T05:48:07.709Z,10416
2019-05-30T05:49:08.400Z,10808
2019-05-30T05:50:09.104Z,11384
2019-05-30T05:51:09.791Z,12192
2019-05-30T05:52:12.133Z,12984
2019-05-30T05:53:11.193Z,13620
2019-05-30T05:54:11.886Z,13940
2019-05-30T05:55:12.583Z,13832
2019-05-30T05:56:13.277Z,13524
2019-05-30T05:57:13.978Z,13064
2019-05-30T05:58:14.671Z,12644
2019-05-30T05:59:15.364Z,12416
2019-05-30T06:00:16.900Z,12368
2019-05-30T06:01:17.287Z,12516
2019-05-30T06:02:17.708Z,12764
2019-05-30T06:03:18.870Z,13036
2019-05-30T06:04:19.102Z,13288
2019-05-30T06:05:20.150Z,13476
2019-05-30T06:06:21.283Z,13612
2019-05-30T06:07:22.421Z,13844
2019-05-30T06:08:23.588Z,14224
2019-05-30T06:09:22.933Z,14740
2019-05-30T06:10:23.747Z,15340
2019-05-30T06:11:24.616Z,16044
2019-05-30T06:12:25.771Z,16748
2019-05-30T06:13:25.708Z,17632
2019-05-30T06:14:26.398Z,18144
2019-05-30T06:15:27.096Z,18624
2019-05-30T06:16:28.382Z,19072
2019-05-30T06:17:29.331Z,19488
2019-05-30T06:18:29.182Z,19840
2019-05-30T06:19:45.333Z,19904
2019-05-30T06:20:30.572Z,19968
2019-05-30T06:21:31.292Z,19872
2019-05-30T06:22:31.975Z,19712
2019-05-30T06:23:32.680Z,19488
2019-05-30T06:24:33.370Z,19296
2019-05-30T06:25:34.091Z,19008
2019-05-30T06:26:34.767Z,18752
2019-05-30T06:27:35.468Z,19008
2019-05-30T06:28:36.183Z,19840
2019-05-30T06:29:36.866Z,20800
2019-05-30T06:30:37.562Z,21632
2019-05-30T06:31:38.269Z,22048
2019-05-30T06:32:38.956Z,22016
2019-05-30T06:33:39.655Z,21632
2019-05-30T06:34:40.405Z,20992
2019-05-30T06:35:41.102Z,20512
2019-05-30T06:36:41.749Z,20256
2019-05-30T06:37:42.437Z,20352
2019-05-30T06:38:43.139Z,20416
2019-05-30T06:39:43.832Z,20576
2019-05-30T06:40:44.536Z,20896
2019-05-30T06:41:45.227Z,20704
2019-05-30T06:42:45.923Z,20416
2019-05-30T06:43:46.624Z,19968
2019-05-30T06:44:47.327Z,19744
2019-05-30T06:45:48.025Z,19712
2019-05-30T06:46:48.728Z,20320
2019-05-30T06:47:49.417Z,21152
2019-05-30T06:48:50.113Z,22272
2019-05-30T06:49:50.810Z,23360
2019-05-30T06:50:51.517Z,24096
2019-05-30T06:51:52.208Z,24192
2019-05-30T06:52:52.908Z,23872
2019-05-30T06:53:53.605Z,23104
2019-05-30T06:54:54.309Z,22496
2019-05-30T06:55:55.002Z,22016
2019-05-30T06:56:55.705Z,21920
2019-05-30T06:57:56.404Z,22272
2019-05-30T06:58:57.103Z,22880
2019-05-30T06:59:57.812Z,23776
2019-05-30T07:00:58.514Z,24416
2019-05-30T07:01:59.194Z,24992
2019-05-30T07:02:59.937Z,25408
2019-05-30T07:04:00.728Z,25600
2019-05-30T07:05:02.007Z,25536
2019-05-30T07:06:02.564Z,25280
2019-05-30T07:07:05.813Z,24832
2019-05-30T07:08:03.402Z,24512
2019-05-30T07:09:04.096Z,23776
2019-05-30T07:10:04.802Z,23232
2019-05-30T07:11:05.499Z,22976
2019-05-30T07:12:06.194Z,22912
2019-05-30T07:13:06.897Z,23040
2019-05-30T07:14:07.593Z,23264
2019-05-30T07:15:08.289Z,23744
2019-05-30T07:16:08.988Z,24384
2019-05-30T07:17:09.681Z,24832
2019-05-30T07:18:10.376Z,25216
2019-05-30T07:19:11.084Z,25312
2019-05-30T07:20:11.773Z,25344
2019-05-30T07:21:12.476Z,24896
2019-05-30T07:22:13.169Z,24416
2019-05-30T07:23:13.871Z,23968
2019-05-30T07:24:14.581Z,23744
2019-05-30T07:25:15.273Z,23360
2019-05-30T07:26:15.992Z,23168
2019-05-30T07:27:16.682Z,22624
2019-05-30T07:28:17.386Z,22048
2019-05-30T07:29:18.091Z,21760
2019-05-30T07:30:18.794Z,22048
2019-05-30T07:31:19.499Z,22912
2019-05-30T07:32:20.194Z,24448
2019-05-30T07:33:20.897Z,26624
2019-05-30T07:34:21.592Z,29568
2019-05-30T07:35:22.298Z,31936
2019-05-30T07:36:24.012Z,32928
2019-05-30T07:37:24.478Z,32480
2019-05-30T07:38:24.403Z,31328
2019-05-30T07:39:27.127Z,29472
2019-05-30T07:40:26.570Z,27680
2019-05-30T07:41:26.855Z,26208
2019-05-30T07:42:27.196Z,25376
2019-05-30T07:43:28.988Z,25248
2019-05-30T07:44:28.780Z,26400
2019-05-30T07:45:29.281Z,28448
2019-05-30T07:46:30.979Z,30656
2019-05-30T07:47:30.682Z,32672
2019-05-30T07:48:32.367Z,32992
2019-05-30T07:49:32.417Z,31424
2019-05-30T07:50:32.778Z,28928
2019-05-30T07:51:34.634Z,26400
2019-05-30T07:52:34.850Z,24672
2019-05-30T07:53:35.006Z,23040
2019-05-30T07:54:35.582Z,21632
2019-05-30T07:55:36.280Z,21120
2019-05-30T07:56:37.991Z,21312
2019-05-30T07:57:41.025Z,21760
2019-05-30T07:58:38.378Z,22240
2019-05-30T07:59:39.102Z,22848
2019-05-30T08:00:39.817Z,23072
2019-05-30T08:01:40.487Z,24224
2019-05-30T08:02:41.187Z,26400
2019-05-30T08:03:41.892Z,28512
2019-05-30T08:04:42.587Z,30976
2019-05-30T08:05:43.283Z,33536
2019-05-30T08:06:43.983Z,36384
2019-05-30T08:07:44.685Z,36224
2019-05-30T08:08:45.381Z,34848
2019-05-30T08:09:46.154Z,31808
2019-05-30T08:10:46.821Z,28416
2019-05-30T08:11:47.525Z,24960
2019-05-30T08:12:48.232Z,23456
2019-05-30T08:13:48.920Z,22560
2019-05-30T08:14:49.618Z,23232
2019-05-30T08:15:50.320Z,24256
2019-05-30T08:16:51.017Z,26016
2019-05-30T08:17:51.727Z,26048
2019-05-30T08:18:52.408Z,25920
2019-05-30T08:19:53.111Z,27008
2019-05-30T08:20:53.797Z,26976
2019-05-30T08:21:54.502Z,26496
2019-05-30T08:22:55.221Z,24672
2019-05-30T08:23:55.894Z,23200
2019-05-30T08:24:56.596Z,24960
2019-05-30T08:25:57.296Z,26016
2019-05-30T08:26:57.992Z,25792
2019-05-30T08:27:58.696Z,25312
2019-05-30T08:28:59.393Z,26592
2019-05-30T08:30:00.083Z,25856
2019-05-30T08:31:00.787Z,22816
2019-05-30T08:32:01.508Z,19712
2019-05-30T08:33:02.182Z,17696
2019-05-30T08:34:02.883Z,17824
2019-05-30T08:35:03.599Z,18208
2019-05-30T08:36:05.639Z,19136
2019-05-30T08:37:04.980Z,21120
2019-05-30T08:38:05.673Z,21824
2019-05-30T08:39:06.377Z,22304
2019-05-30T08:40:07.082Z,22784
2019-05-30T08:41:07.776Z,24480
2019-05-30T08:42:08.474Z,25952
2019-05-30T08:43:09.176Z,25248
2019-05-30T08:44:09.868Z,24704
2019-05-30T08:45:10.629Z,26368
2019-05-30T08:46:11.417Z,30592
2019-05-30T08:47:12.122Z,32544
2019-05-30T08:48:12.861Z,33408
2019-05-30T08:49:13.566Z,34720
2019-05-30T08:50:14.253Z,31200
2019-05-30T08:51:14.950Z,26368
2019-05-30T08:52:15.656Z,25888
2019-05-30T08:53:16.361Z,23680
2019-05-30T08:54:17.054Z,24864
2019-05-30T08:55:17.753Z,27328
2019-05-30T08:56:18.453Z,28000
2019-05-30T08:57:19.161Z,25824
2019-05-30T08:58:19.861Z,25760
2019-05-30T08:59:20.558Z,23488
2019-05-30T09:00:21.258Z,21152
2019-05-30T09:01:21.958Z,20288
2019-05-30T09:02:22.652Z,19072
2019-05-30T09:03:23.350Z,20512
2019-05-30T09:04:24.051Z,21472
2019-05-30T09:05:24.745Z,20640
2019-05-30T09:06:25.454Z,18816
2019-05-30T09:07:26.150Z,18336
2019-05-30T09:08:26.846Z,20768
2019-05-30T09:09:27.548Z,21536
2019-05-30T09:10:28.242Z,23456
2019-05-30T09:11:28.944Z,24896
2019-05-30T09:12:29.643Z,27264
2019-05-30T09:13:30.385Z,28960
2019-05-30T09:14:31.039Z,29888
2019-05-30T09:15:31.740Z,30304
2019-05-30T09:16:32.433Z,31296
2019-05-30T09:17:33.136Z,33376
2019-05-30T09:18:33.837Z,32832
2019-05-30T09:19:34.527Z,33216
2019-05-30T09:20:35.228Z,34528
2019-05-30T09:21:36.823Z,35424
2019-05-30T09:22:37.980Z,36000
2019-05-30T09:23:38.544Z,37472
2019-05-30T09:24:39.297Z,37536
2019-05-30T09:25:39.955Z,36224
2019-05-30T09:26:44.204Z,36800
2019-05-30T09:27:40.871Z,35552
2019-05-30T09:28:42.107Z,32736
2019-05-30T09:29:42.704Z,30848
2019-05-30T09:30:43.199Z,32448
2019-05-30T09:31:42.901Z,34656
2019-05-30T09:32:45.099Z,37312
2019-05-30T09:33:44.690Z,41920
2019-05-30T09:34:45.004Z,46848
2019-05-30T09:35:46.943Z,49856
2019-05-30T09:36:47.359Z,53120
2019-05-30T09:37:49.360Z,47584
2019-05-30T09:38:49.753Z,47744
2019-05-30T09:39:49.472Z,45664
2019-05-30T09:40:50.143Z,45504
2019-05-30T09:41:50.867Z,55584
2019-05-30T09:42:51.559Z,51008
2019-05-30T09:43:52.247Z,57632
2019-05-30T09:44:52.949Z,62240
2019-05-30T09:45:53.646Z,52416
2019-05-30T09:46:54.342Z,54784
2019-05-30T09:47:55.040Z,56256
2019-05-30T09:48:55.742Z,52384
2019-05-30T09:49:56.449Z,55328
2019-05-30T09:50:57.156Z,97312
2019-05-30T09:51:58.053Z,71296
2019-05-30T09:52:58.759Z,71040
2019-05-30T09:53:59.469Z,69184
2019-05-30T09:55:00.162Z,59584
2019-05-30T09:56:00.854Z,55936
2019-05-30T09:57:01.560Z,57600
2019-05-30T09:58:02.258Z,56672
2019-05-30T09:59:02.960Z,59200
2019-05-30T10:00:03.668Z,80320
2019-05-30T10:01:04.357Z,60320
2019-05-30T10:02:05.060Z,69760
2019-05-30T10:03:05.758Z,58816
2019-05-30T10:04:06.464Z,66240
2019-05-30T10:05:07.176Z,55072
2019-05-30T10:06:07.877Z,48672
2019-05-30T10:07:08.583Z,44512
2019-05-30T10:08:09.285Z,45632
2019-05-30T10:09:09.989Z,42464
2019-05-30T10:10:10.701Z,43392
2019-05-30T10:11:11.387Z,41984
2019-05-30T10:12:12.087Z,39520
2019-05-30T10:13:12.795Z,38848
2019-05-30T10:14:13.491Z,37984
2019-05-30T10:15:14.197Z,35296
2019-05-30T10:16:14.897Z,34656
2019-05-30T10:17:15.604Z,35712
2019-05-30T10:18:16.298Z,35456
2019-05-30T10:19:17.004Z,35168
2019-05-30T10:20:17.700Z,34208
2019-05-30T10:21:18.406Z,34688
2019-05-30T10:22:19.110Z,37888
2019-05-30T10:23:19.821Z,38304
2019-05-30T10:24:20.520Z,36736
2019-05-30T10:25:21.235Z,35520
2019-05-30T10:26:21.933Z,32064
2019-05-30T10:27:22.638Z,30048
2019-05-30T10:28:23.346Z,28896
2019-05-30T10:29:24.039Z,29952
2019-05-30T10:30:24.757Z,30912
2019-05-30T10:31:25.447Z,28352
2019-05-30T10:32:26.147Z,27328
2019-05-30T10:33:26.864Z,29216
2019-05-30T10:34:27.559Z,29696
2019-05-30T10:35:30.050Z,29696
2019-05-30T10:36:43.118Z,29984
2019-05-30T10:37:29.659Z,30752
2019-05-30T10:38:30.356Z,33184
2019-05-30T10:39:31.057Z,38048
2019-05-30T10:40:32.268Z,48064
2019-05-30T10:41:32.454Z,59168
2019-05-30T10:42:33.162Z,81280
2019-05-30T10:43:33.868Z,77824
2019-05-30T10:44:34.568Z,65824
2019-05-30T10:45:38.497Z,54624
2019-05-30T10:46:36.037Z,54304
2019-05-30T10:47:36.684Z,54272
2019-05-30T10:48:37.374Z,56320
2019-05-30T10:49:38.073Z,57344
2019-05-30T10:50:38.773Z,49408
2019-05-30T10:51:39.472Z,48896
2019-05-30T10:52:40.175Z,41888
2019-05-30T10:53:40.878Z,42592
2019-05-30T10:54:41.578Z,44256
2019-05-30T10:55:42.280Z,45920
2019-05-30T10:56:42.997Z,47456
2019-05-30T10:57:43.685Z,48448
2019-05-30T10:58:46.514Z,59744
2019-05-30T10:59:46.142Z,60384
2019-05-30T11:00:47.260Z,50784
2019-05-30T11:01:47.083Z,48928
2019-05-30T11:02:47.958Z,48672
2019-05-30T11:03:48.760Z,47936
2019-05-30T11:04:48.926Z,49568
2019-05-30T11:05:50.591Z,48384
2019-05-30T11:07:04.483Z,43648
2019-05-30T11:08:00.330Z,36768
2019-05-30T11:08:52.754Z,32064
2019-05-30T11:09:52.792Z,30016
2019-05-30T11:10:52.903Z,29120
2019-05-30T11:11:54.917Z,28800
2019-05-30T11:13:03.069Z,28928
2019-05-30T11:13:55.396Z,29792
2019-05-30T11:14:55.695Z,31904
2019-05-30T11:15:57.423Z,34304
2019-05-30T11:16:57.804Z,34336
2019-05-30T11:17:57.798Z,33664
2019-05-30T11:18:58.498Z,32672
2019-05-30T11:19:59.214Z,30624
2019-05-30T11:20:59.896Z,27680
2019-05-30T11:22:00.606Z,26912
2019-05-30T11:23:01.307Z,25216
2019-05-30T11:24:02.004Z,24992
2019-05-30T11:25:02.701Z,26528
2019-05-30T11:26:03.407Z,28576
2019-05-30T11:27:04.106Z,29248
2019-05-30T11:28:04.918Z,28384
2019-05-30T11:29:05.613Z,26016
2019-05-30T11:30:06.318Z,25632
2019-05-30T11:31:07.024Z,24096
2019-05-30T11:32:07.719Z,23424
2019-05-30T11:33:08.429Z,22432
2019-05-30T11:34:09.119Z,21504
2019-05-30T11:35:09.824Z,19104
2019-05-30T11:36:10.523Z,17856
2019-05-30T11:37:18.516Z,17856
2019-05-30T11:38:11.949Z,19680
2019-05-30T11:39:12.653Z,24576
2019-05-30T11:40:13.352Z,27328
2019-05-30T11:41:14.061Z,26848
2019-05-30T11:42:14.761Z,26240
2019-05-30T11:43:15.464Z,23488
2019-05-30T11:44:16.167Z,21888
2019-05-30T11:45:16.869Z,22240
2019-05-30T11:46:17.562Z,20128
2019-05-30T11:47:18.262Z,17164
2019-05-30T11:48:18.979Z,15688
2019-05-30T11:49:19.662Z,17136
2019-05-30T11:50:20.365Z,18976
2019-05-30T11:51:21.068Z,19712
2019-05-30T11:52:21.771Z,20768
2019-05-30T11:53:22.465Z,20064
2019-05-30T11:54:23.174Z,19776
2019-05-30T11:55:23.867Z,20736
2019-05-30T11:56:24.567Z,20672
2019-05-30T11:57:25.265Z,21472
2019-05-30T11:58:25.969Z,21696
2019-05-30T11:59:26.669Z,22368
2019-05-30T12:00:27.375Z,22816
2019-05-30T12:01:28.075Z,21376
2019-05-30T12:02:28.761Z,19392
2019-05-30T12:03:29.819Z,18944
2019-05-30T12:04:30.165Z,18368
2019-05-30T12:05:30.861Z,16752
2019-05-30T12:06:31.563Z,15896
2019-05-30T12:07:36.421Z,15444
2019-05-30T12:08:32.965Z,14200
2019-05-30T12:09:33.665Z,12708
2019-05-30T12:10:34.360Z,12036
2019-05-30T12:11:35.066Z,11512
2019-05-30T12:12:35.758Z,11596
2019-05-30T12:13:36.465Z,11376
2019-05-30T12:14:37.159Z,10820
2019-05-30T12:15:37.864Z,10884
2019-05-30T12:16:38.562Z,10904
2019-05-30T12:17:39.260Z,10640
2019-05-30T12:18:39.961Z,10592
2019-05-30T12:19:40.664Z,10944
2019-05-30T12:20:41.364Z,11216
2019-05-30T12:21:42.067Z,10952
2019-05-30T12:22:42.763Z,11004
2019-05-30T12:23:43.467Z,11036
2019-05-30T12:24:44.162Z,11028
2019-05-30T12:25:44.867Z,11368
2019-05-30T12:26:45.570Z,11084
2019-05-30T12:27:46.268Z,10916
2019-05-30T12:28:46.969Z,10960
2019-05-30T12:29:47.679Z,10796
2019-05-30T12:30:57.715Z,9248
2019-05-30T12:31:49.074Z,8260
2019-05-30T12:32:49.765Z,8680
2019-05-30T12:33:50.464Z,9020
2019-05-30T12:34:52.266Z,8920
2019-05-30T12:35:52.368Z,8704
2019-05-30T12:36:52.558Z,8964
2019-05-30T12:37:58.330Z,9240
2019-05-30T12:38:54.333Z,9656
2019-05-30T12:39:54.653Z,9176
2019-05-30T12:40:56.632Z,8844
2019-05-30T12:41:56.859Z,8712
2019-05-30T12:42:59.178Z,8140
2019-05-30T12:43:57.479Z,8772
2019-05-30T12:44:59.042Z,8964
2019-05-30T12:45:59.334Z,8208
2019-05-30T12:47:01.243Z,7588
2019-05-30T12:48:01.315Z,7164
2019-05-30T12:49:01.670Z,6756
2019-05-30T12:50:03.457Z,6924
2019-05-30T12:51:03.517Z,7808
2019-05-30T12:52:03.577Z,8620
2019-05-30T12:53:04.243Z,9476
2019-05-30T12:54:04.946Z,9452
2019-05-30T12:55:06.793Z,9556
2019-05-30T12:56:06.879Z,10092
2019-05-30T12:57:07.114Z,9804
2019-05-30T12:58:07.738Z,9816
2019-05-30T12:59:08.440Z,10332
2019-05-30T13:00:16.855Z,10604
2019-05-30T13:01:09.847Z,11004
2019-05-30T13:02:10.550Z,11044
2019-05-30T13:03:11.245Z,11772
2019-05-30T13:04:11.946Z,12152
2019-05-30T13:05:12.645Z,12244
2019-05-30T13:06:13.353Z,12800
2019-05-30T13:07:14.055Z,12924
2019-05-30T13:08:21.656Z,13360
2019-05-30T13:09:15.447Z,12880
2019-05-30T13:10:16.145Z,12076
2019-05-30T13:11:16.861Z,12828
2019-05-30T13:12:17.554Z,13356
2019-05-30T13:13:18.254Z,13276
2019-05-30T13:14:18.958Z,12864
2019-05-30T13:15:19.655Z,12200
2019-05-30T13:16:20.362Z,12220
2019-05-30T13:17:21.052Z,12204
2019-05-30T13:18:21.755Z,11756
2019-05-30T13:19:22.458Z,12268
2019-05-30T13:20:23.151Z,12176
2019-05-30T13:21:23.859Z,11700
2019-05-30T13:22:24.554Z,12104
2019-05-30T13:23:25.274Z,12880
2019-05-30T13:24:25.962Z,12984
2019-05-30T13:25:26.656Z,12816
2019-05-30T13:26:27.358Z,13044
2019-05-30T13:27:28.062Z,12576
2019-05-30T13:28:28.762Z,12292
2019-05-30T13:29:29.466Z,12700
2019-05-30T13:30:30.169Z,12648